Time;durP1;ratioP1;P1;durP2;ratioP2;P2;SDS_P1;SDS_P2;PMS_P1;PMS_P2;Temp;Humidity;BMP_temperature;BMP_pressure;BME280_temperature;BME280_humidity;BME280_pressure;Samples;Min_cycle;Max_cycle;Signal;HPM_P1;HPM_P2
2023/04/29 00:00:30;;;;;;;6.50;2.77;;;13.10;21.60;;;;;;4969838;28;20707;-54
2023/04/29 00:02:56;;;;;;;5.90;2.40;;;13.10;19.10;;;;;;4971581;28;20400;-55
2023/04/29 00:05:22;;;;;;;5.95;2.20;;;13.20;23.90;;;;;;4973656;28;20465;-55
2023/04/29 00:07:47;;;;;;;5.33;2.20;;;13.10;17.80;;;;;;4973879;28;20408;-55
2023/04/29 00:10:13;;;;;;;5.70;2.42;;;13.20;12.90;;;;;;4974301;28;20380;-55
2023/04/29 00:12:40;;;;;;;5.70;2.40;;;13.20;12.10;;;;;;4973198;28;20976;-55
2023/04/29 00:15:07;;;;;;;6.07;2.70;;;13.20;12.20;;;;;;4974131;28;20412;-55
2023/04/29 00:17:33;;;;;;;5.70;2.17;;;13.20;6.40;;;;;;4973096;28;20403;-55
2023/04/29 00:19:59;;;;;;;5.10;1.90;;;13.10;1.00;;;;;;4974048;28;20846;-55
2023/04/29 00:22:24;;;;;;;6.60;2.47;;;13.00;1.00;;;;;;4972889;28;20388;-55
2023/04/29 00:24:51;;;;;;;5.00;2.03;;;13.00;3.60;;;;;;4974148;28;20395;-55
2023/04/29 00:27:17;;;;;;;7.60;2.70;;;13.00;1.00;;;;;;4973637;28;20408;-54
2023/04/29 00:29:43;;;;;;;5.87;2.57;;;13.00;11.00;;;;;;4973077;28;20423;-55
2023/04/29 00:32:08;;;;;;;8.60;2.30;;;13.00;13.90;;;;;;4973641;28;20396;-54
2023/04/29 00:34:34;;;;;;;7.20;2.60;;;13.00;20.90;;;;;;4972903;28;20837;-54
2023/04/29 00:36:59;;;;;;;8.37;2.80;;;13.00;20.60;;;;;;4973397;28;20392;-55
2023/04/29 00:39:25;;;;;;;6.28;2.42;;;13.00;28.20;;;;;;4973328;28;20373;-55
2023/04/29 00:41:51;;;;;;;6.13;2.30;;;13.10;30.80;;;;;;4973903;28;20399;-55
2023/04/29 00:44:17;;;;;;;5.60;2.28;;;13.10;24.60;;;;;;4973538;28;20440;-55
2023/04/29 00:46:43;;;;;;;6.10;2.50;;;13.20;33.80;;;;;;4972638;28;20388;-55
2023/04/29 00:49:09;;;;;;;6.45;2.58;;;13.20;27.30;;;;;;4973268;28;20402;-55
2023/04/29 00:51:36;;;;;;;7.82;2.50;;;13.30;24.50;;;;;;4972968;28;20426;-55
2023/04/29 00:54:06;;;;;;;7.28;2.15;;;13.30;22.20;;;;;;4955876;28;20739;-55
2023/04/29 00:56:34;;;;;;;8.10;2.60;;;13.30;22.10;;;;;;4972566;28;20388;-55
2023/04/29 00:59:02;;;;;;;6.80;2.55;;;13.30;13.90;;;;;;4973226;28;20474;-55
2023/04/29 01:01:29;;;;;;;8.10;3.10;;;13.40;13.60;;;;;;4972475;28;20400;-55
2023/04/29 01:03:56;;;;;;;6.70;3.10;;;13.40;11.80;;;;;;4973327;28;20425;-55
2023/04/29 01:06:46;;;;;;;6.88;2.92;;;13.40;9.60;;;;;;4973197;28;20731;-55
2023/04/29 01:09:17;;;;;;;5.95;2.80;;;13.30;7.00;;;;;;4973144;28;20407;-55
2023/04/29 01:12:09;;;;;;;7.07;2.80;;;13.30;6.70;;;;;;4972762;28;20384;-55
2023/04/29 01:14:38;;;;;;;9.02;4.60;;;13.30;1.10;;;;;;4936527;28;20423;-55
2023/04/29 01:17:10;;;;;;;7.57;3.35;;;13.30;1.00;;;;;;4972878;28;20915;-55
2023/04/29 01:19:51;;;;;;;8.00;3.50;;;13.30;1.00;;;;;;4972102;28;20464;-55
2023/04/29 01:22:18;;;;;;;7.57;3.40;;;13.20;1.00;;;;;;4973090;28;20396;-55
2023/04/29 01:24:44;;;;;;;6.90;3.10;;;13.30;1.00;;;;;;4971977;28;20568;-55
2023/04/29 01:27:13;;;;;;;7.70;3.55;;;13.30;1.00;;;;;;4972523;28;20766;-55
2023/04/29 01:29:49;;;;;;;8.55;2.83;;;13.30;1.00;;;;;;4972348;28;20432;-55
2023/04/29 01:32:29;;;;;;;10.13;3.20;;;13.20;1.00;;;;;;4972630;28;20401;-54
2023/04/29 01:35:07;;;;;;;5.82;2.67;;;13.20;1.00;;;;;;4972669;28;20485;-55
2023/04/29 01:37:42;;;;;;;6.32;2.90;;;13.20;1.00;;;;;;4971834;28;20520;-55
2023/04/29 01:40:32;;;;;;;6.22;2.90;;;13.20;1.00;;;;;;4972588;28;20565;-55
2023/04/29 01:43:04;;;;;;;7.00;2.50;;;13.20;1.00;;;;;;4972959;28;20481;-55
2023/04/29 01:45:32;;;;;;;7.80;2.40;;;13.10;1.00;;;;;;4971546;28;20434;-55
2023/04/29 01:47:59;;;;;;;7.15;3.22;;;13.10;1.00;;;;;;4972034;28;20712;-55
2023/04/29 01:50:25;;;;;;;6.45;2.80;;;13.00;1.00;;;;;;4971720;28;20387;-55
2023/04/29 01:52:50;;;;;;;6.57;2.90;;;13.00;1.00;;;;;;4955081;28;20392;-55
2023/04/29 01:55:16;;;;;;;6.40;2.50;;;12.90;1.00;;;;;;4972220;28;20535;-55
2023/04/29 01:57:43;;;;;;;5.40;2.20;;;12.80;1.00;;;;;;4971308;28;20415;-55
2023/04/29 02:00:10;;;;;;;6.60;2.85;;;12.80;1.00;;;;;;4972175;28;20389;-54
2023/04/29 02:02:36;;;;;;;6.43;2.60;;;12.80;1.00;;;;;;4971431;28;20388;-54
2023/04/29 02:05:01;;;;;;;6.93;2.70;;;12.80;1.00;;;;;;4972295;28;20388;-55
2023/04/29 02:07:27;;;;;;;6.30;2.77;;;12.70;1.00;;;;;;4971197;28;20853;-55
2023/04/29 02:09:52;;;;;;;6.72;2.70;;;12.70;1.00;;;;;;4972575;28;20876;-55
2023/04/29 02:12:18;;;;;;;8.30;3.03;;;12.60;1.00;;;;;;4971895;28;20540;-55
2023/04/29 02:14:46;;;;;;;6.63;2.50;;;12.50;1.00;;;;;;4971304;28;20408;-54
2023/04/29 02:17:11;;;;;;;6.00;2.60;;;12.60;1.00;;;;;;4971872;28;20428;-54
2023/04/29 02:19:37;;;;;;;8.00;3.30;;;12.50;1.00;;;;;;4971048;28;20423;-54
2023/04/29 02:22:02;;;;;;;8.20;2.80;;;12.40;1.00;;;;;;4971915;28;20464;-55
2023/04/29 02:24:28;;;;;;;7.20;2.70;;;12.50;1.00;;;;;;4971071;28;20487;-54
2023/04/29 02:26:54;;;;;;;6.60;3.00;;;12.50;1.00;;;;;;4970946;28;20964;-54
2023/04/29 02:29:20;;;;;;;6.03;2.50;;;12.50;1.00;;;;;;4971701;28;20412;-54
2023/04/29 02:31:46;;;;;;;7.70;2.90;;;12.40;1.00;;;;;;4970674;28;20398;-55
2023/04/29 02:34:11;;;;;;;9.23;2.72;;;12.40;1.00;;;;;;4971551;28;20380;-54
2023/04/29 02:36:37;;;;;;;5.87;2.80;;;12.30;1.00;;;;;;4970787;28;20392;-54
2023/04/29 02:39:03;;;;;;;9.95;2.88;;;12.20;1.00;;;;;;4971722;28;20395;-54
2023/04/29 02:41:28;;;;;;;6.90;2.80;;;12.20;1.00;;;;;;4970606;28;20389;-54
2023/04/29 02:43:54;;;;;;;7.20;3.00;;;12.20;1.00;;;;;;4971405;28;20384;-55
2023/04/29 02:46:20;;;;;;;8.27;2.90;;;12.20;1.00;;;;;;4971467;28;20396;-54
2023/04/29 02:48:45;;;;;;;7.33;3.00;;;12.10;1.00;;;;;;4970663;28;20376;-54
2023/04/29 02:51:11;;;;;;;7.03;2.73;;;12.10;1.00;;;;;;4971094;28;20443;-54
2023/04/29 02:53:36;;;;;;;9.05;3.33;;;12.10;1.00;;;;;;4970349;28;20381;-54
2023/04/29 02:56:02;;;;;;;7.10;3.10;;;12.10;1.00;;;;;;4970908;28;20424;-55
2023/04/29 02:58:28;;;;;;;7.05;2.78;;;12.10;1.00;;;;;;4970647;28;20431;-55
2023/04/29 03:00:53;;;;;;;6.55;3.17;;;12.10;1.00;;;;;;4971464;28;20462;-55
2023/04/29 03:03:19;;;;;;;6.97;2.70;;;12.00;1.00;;;;;;4971032;28;20799;-55
2023/04/29 03:05:44;;;;;;;9.18;2.80;;;11.90;1.00;;;;;;4970547;28;20399;-54
2023/04/29 03:08:10;;;;;;;5.80;2.40;;;11.80;1.00;;;;;;4971320;28;20393;-55
2023/04/29 03:10:36;;;;;;;7.70;3.00;;;11.80;1.00;;;;;;4970006;28;20396;-54
2023/04/29 03:13:01;;;;;;;7.88;2.70;;;11.80;1.00;;;;;;4971327;28;20388;-55
2023/04/29 03:15:27;;;;;;;6.30;2.40;;;11.70;1.00;;;;;;4970243;28;20779;-55
2023/04/29 03:17:53;;;;;;;6.90;2.50;;;11.70;1.00;;;;;;4970861;28;20388;-54
2023/04/29 03:20:19;;;;;;;5.40;2.37;;;11.60;1.00;;;;;;4970953;28;20391;-55
2023/04/29 03:22:45;;;;;;;6.93;2.60;;;11.40;1.00;;;;;;4969778;28;20396;-54
2023/04/29 03:25:11;;;;;;;6.55;2.67;;;11.40;1.00;;;;;;4970986;28;20403;-54
2023/04/29 03:27:36;;;;;;;7.13;2.83;;;11.40;1.00;;;;;;4970334;28;20411;-54
2023/04/29 03:30:02;;;;;;;7.10;2.30;;;11.30;1.00;;;;;;4970850;28;20420;-54
2023/04/29 03:32:27;;;;;;;7.25;3.03;;;11.20;1.00;;;;;;4970415;28;20440;-54
2023/04/29 03:34:54;;;;;;;6.57;2.70;;;11.20;1.00;;;;;;4970480;28;20885;-54
2023/04/29 03:37:19;;;;;;;5.97;2.30;;;11.20;1.00;;;;;;4972325;28;20475;-54
2023/04/29 03:39:45;;;;;;;7.88;3.05;;;11.20;1.00;;;;;;4974076;28;20380;-54
2023/04/29 03:42:11;;;;;;;6.60;2.70;;;11.20;1.00;;;;;;4974857;28;20384;-54
2023/04/29 03:44:36;;;;;;;9.45;3.17;;;11.30;1.00;;;;;;4973788;28;20411;-54
2023/04/29 03:47:02;;;;;;;7.05;2.97;;;11.30;1.00;;;;;;4974922;28;20427;-54
2023/04/29 03:49:28;;;;;;;6.23;2.63;;;11.30;1.00;;;;;;4974178;28;20386;-54
2023/04/29 03:51:53;;;;;;;5.10;2.08;;;11.20;1.00;;;;;;4975019;28;20427;-54
2023/04/29 03:54:19;;;;;;;7.23;2.70;;;11.20;1.00;;;;;;4974485;28;20426;-54
2023/04/29 03:56:45;;;;;;;7.20;2.90;;;11.10;1.00;;;;;;4973412;28;21084;-54
2023/04/29 03:59:11;;;;;;;7.32;2.50;;;11.10;1.00;;;;;;4974349;28;20400;-54
2023/04/29 04:01:37;;;;;;;8.27;2.70;;;11.00;1.00;;;;;;4973502;28;20458;-54
2023/04/29 04:04:02;;;;;;;5.30;2.25;;;11.00;1.00;;;;;;4973938;28;20380;-54
2023/04/29 04:06:28;;;;;;;6.00;2.60;;;10.90;1.00;;;;;;4973594;28;20392;-54
2023/04/29 04:08:54;;;;;;;7.43;2.40;;;10.90;1.00;;;;;;4973714;28;20411;-54
2023/04/29 04:11:20;;;;;;;7.27;3.00;;;10.90;1.00;;;;;;4973979;28;20491;-54
2023/04/29 04:13:45;;;;;;;6.82;2.78;;;10.90;1.00;;;;;;4973341;28;20396;-54
2023/04/29 04:16:11;;;;;;;10.83;3.00;;;11.00;1.00;;;;;;4974149;28;20431;-54
2023/04/29 04:18:37;;;;;;;7.15;3.10;;;11.00;1.00;;;;;;4972944;28;20392;-54
2023/04/29 04:21:11;;;;;;;8.00;3.45;;;11.00;1.00;;;;;;4974001;28;20384;-54
2023/04/29 04:23:39;;;;;;;10.95;3.90;;;11.10;1.00;;;;;;4972939;28;20396;-54
2023/04/29 04:26:05;;;;;;;9.13;3.80;;;11.10;1.00;;;;;;4973732;28;20847;-54
2023/04/29 04:28:31;;;;;;;7.82;3.40;;;11.20;1.00;;;;;;4972543;28;21220;-54
2023/04/29 04:30:57;;;;;;;7.90;3.93;;;11.10;1.00;;;;;;4973763;28;20467;-54
2023/04/29 04:33:23;;;;;;;11.63;5.15;;;11.20;1.00;;;;;;4956445;28;20445;-54
2023/04/29 04:35:49;;;;;;;11.25;5.57;;;11.40;36.20;;;;;;4973181;28;20503;-54
2023/04/29 04:38:14;;;;;;;10.70;5.38;;;11.60;71.50;;;;;;4973433;28;20551;-55
2023/04/29 04:40:41;;;;;;;13.10;6.18;;;11.80;77.60;;;;;;4973163;28;20407;-54
2023/04/29 04:43:07;;;;;;;10.73;5.70;;;12.00;92.00;;;;;;4973502;28;20483;-54
2023/04/29 04:45:33;;;;;;;10.70;5.73;;;12.20;96.10;;;;;;4972984;28;20526;-54
2023/04/29 04:47:59;;;;;;;12.30;5.93;;;12.30;94.40;;;;;;4973272;28;20722;-54
2023/04/29 04:50:28;;;;;;;13.60;5.90;;;12.40;96.80;;;;;;4972520;28;20475;-54
2023/04/29 04:52:54;;;;;;;12.00;6.00;;;12.50;92.20;;;;;;4973466;28;20851;-54
2023/04/29 04:55:20;;;;;;;10.80;5.10;;;12.60;93.20;;;;;;4972833;28;20811;-54
2023/04/29 04:57:45;;;;;;;10.35;5.50;;;12.80;86.40;;;;;;4972679;28;20432;-54
2023/04/29 05:00:12;;;;;;;12.25;5.32;;;12.80;79.70;;;;;;4973243;28;20829;-54
2023/04/29 05:02:37;;;;;;;11.23;5.20;;;12.90;58.50;;;;;;4971957;28;20750;-55
2023/04/29 05:05:03;;;;;;;9.60;5.10;;;13.00;51.80;;;;;;4973109;28;20388;-54
2023/04/29 05:07:29;;;;;;;10.40;5.05;;;13.10;53.40;;;;;;4972416;28;20786;-54
2023/04/29 05:09:54;;;;;;;10.20;5.10;;;13.10;34.00;;;;;;4973181;28;20416;-54
2023/04/29 05:12:20;;;;;;;12.90;5.10;;;13.20;36.00;;;;;;4973083;28;20399;-54
2023/04/29 05:14:45;;;;;;;9.07;5.10;;;13.20;32.00;;;;;;4972047;28;21048;-54
2023/04/29 05:17:11;;;;;;;9.27;4.00;;;13.10;22.70;;;;;;4972726;28;20772;-54
2023/04/29 05:19:37;;;;;;;7.60;4.00;;;13.20;25.10;;;;;;4972650;28;20883;-54
2023/04/29 05:22:02;;;;;;;10.38;4.90;;;13.20;14.80;;;;;;4972788;28;20396;-54
2023/04/29 05:24:29;;;;;;;9.68;4.30;;;13.20;19.30;;;;;;4972187;28;20424;-54
2023/04/29 05:26:54;;;;;;;9.68;3.80;;;13.20;15.50;;;;;;4972687;28;20471;-54
2023/04/29 05:29:20;;;;;;;8.98;4.28;;;13.30;15.10;;;;;;4972809;28;20511;-54
2023/04/29 05:31:46;;;;;;;8.55;4.28;;;13.40;1.70;;;;;;4971519;28;20385;-54
2023/04/29 05:34:11;;;;;;;10.27;4.43;;;13.40;1.50;;;;;;4972795;28;20913;-54
2023/04/29 05:36:37;;;;;;;10.32;4.20;;;13.50;1.00;;;;;;4972062;28;20846;-54
2023/04/29 05:39:03;;;;;;;8.30;3.90;;;13.60;1.00;;;;;;4972477;28;20388;-54
2023/04/29 05:41:28;;;;;;;10.23;4.10;;;13.60;1.00;;;;;;4971608;28;20377;-55
2023/04/29 05:43:55;;;;;;;8.57;4.32;;;13.60;1.00;;;;;;4972709;28;20725;-54
2023/04/29 05:46:21;;;;;;;8.38;4.00;;;13.80;1.00;;;;;;4972446;28;20890;-54
2023/04/29 05:48:47;;;;;;;8.30;4.20;;;13.90;1.00;;;;;;4971732;28;20391;-54
2023/04/29 05:51:13;;;;;;;10.55;3.60;;;13.90;1.00;;;;;;4972372;28;20396;-54
2023/04/29 05:53:39;;;;;;;8.65;4.13;;;13.90;1.00;;;;;;4971672;28;20483;-54
2023/04/29 05:56:07;;;;;;;8.48;3.90;;;14.00;1.00;;;;;;4971980;28;20502;-54
2023/04/29 05:58:35;;;;;;;8.60;3.70;;;14.00;1.00;;;;;;4971295;28;20466;-55
2023/04/29 06:01:02;;;;;;;8.80;3.53;;;14.10;1.00;;;;;;4971321;28;20758;-54
2023/04/29 06:03:27;;;;;;;10.35;4.30;;;14.20;1.00;;;;;;4970664;28;20439;-55
2023/04/29 06:05:53;;;;;;;8.52;3.75;;;14.60;1.00;;;;;;4963940;28;20427;-55
2023/04/29 06:08:19;;;;;;;7.73;3.70;;;14.80;1.00;;;;;;4965244;28;20483;-54
2023/04/29 06:10:45;;;;;;;9.10;4.00;;;14.90;1.00;;;;;;4956322;28;20722;-55
2023/04/29 06:13:11;;;;;;;8.10;3.70;;;15.10;1.00;;;;;;4952775;28;20397;-55
2023/04/29 06:15:36;;;;;;;7.78;3.72;;;15.00;1.00;;;;;;4970784;28;20420;-55
2023/04/29 06:18:02;;;;;;;7.33;3.20;;;15.00;1.00;;;;;;4971515;28;20874;-55
2023/04/29 06:20:28;;;;;;;8.82;3.40;;;15.00;1.00;;;;;;4971247;28;20380;-56
2023/04/29 06:22:53;;;;;;;8.48;3.70;;;15.00;1.00;;;;;;4962255;28;20903;-55
2023/04/29 06:25:19;;;;;;;8.53;3.33;;;15.10;1.00;;;;;;4952277;29;20713;-55
2023/04/29 06:27:44;;;;;;;8.63;3.40;;;15.30;99.90;;;;;;4952417;28;20855;-55
2023/04/29 06:30:10;;;;;;;8.77;3.55;;;15.10;1.00;;;;;;4960626;28;20412;-55
2023/04/29 06:32:38;;;;;;;8.13;3.57;;;14.80;1.00;;;;;;4961343;28;20762;-54
2023/04/29 06:35:04;;;;;;;7.50;3.40;;;14.70;1.00;;;;;;4966832;28;20430;-55
2023/04/29 06:37:29;;;;;;;7.10;2.90;;;14.40;1.00;;;;;;4958243;28;20402;-55
2023/04/29 06:39:55;;;;;;;6.90;3.27;;;14.20;1.00;;;;;;4963738;28;20392;-55
2023/04/29 06:42:20;;;;;;;8.30;3.13;;;14.00;1.00;;;;;;4966989;28;20419;-55
2023/04/29 06:44:46;;;;;;;9.85;3.67;;;14.10;1.00;;;;;;4958719;28;20393;-56
2023/04/29 06:47:12;;;;;;;10.27;3.17;;;14.40;1.00;;;;;;4962906;28;20491;-55
2023/04/29 06:49:37;;;;;;;6.47;2.70;;;15.50;1.00;;;;;;4967723;28;20482;-56
2023/04/29 06:52:03;;;;;;;6.40;2.60;;;16.30;99.90;;;;;;4968431;28;20403;-56
2023/04/29 06:54:29;;;;;;;6.55;2.88;;;16.50;99.90;;;;;;4966149;28;20423;-56
2023/04/29 06:56:54;;;;;;;6.70;2.40;;;16.30;99.90;;;;;;4961630;28;20402;-56
2023/04/29 06:59:22;;;;;;;6.40;2.50;;;15.90;99.90;;;;;;4967471;28;20779;-56
2023/04/29 07:01:47;;;;;;;6.57;2.90;;;15.80;99.90;;;;;;4968449;28;20408;-55
2023/04/29 07:04:13;;;;;;;7.03;2.80;;;15.70;1.00;;;;;;4966221;28;20415;-56
2023/04/29 07:06:38;;;;;;;6.10;2.50;;;15.60;1.00;;;;;;4969316;28;20475;-56
2023/04/29 07:09:04;;;;;;;6.30;2.50;;;15.70;99.90;;;;;;4970183;28;20385;-55
2023/04/29 07:11:30;;;;;;;5.90;2.90;;;15.90;1.00;;;;;;4969187;28;20388;-56
2023/04/29 07:13:55;;;;;;;6.40;2.60;;;15.80;99.90;;;;;;4970513;28;20838;-56
2023/04/29 07:16:21;;;;;;;5.30;2.00;;;16.20;99.90;;;;;;4970176;28;20465;-56
2023/04/29 07:18:49;;;;;;;6.30;2.43;;;16.80;99.90;;;;;;4968890;28;20399;-56
2023/04/29 07:21:15;;;;;;;6.38;2.13;;;17.20;99.90;;;;;;4969855;28;20531;-56
2023/04/29 07:23:41;;;;;;;6.93;2.40;;;17.10;99.90;;;;;;4969041;28;20384;-56
2023/04/29 07:26:17;;;;;;;6.05;2.40;;;17.10;1.00;;;;;;4970643;28;20396;-56
2023/04/29 07:28:43;;;;;;;6.32;2.40;;;16.70;1.00;;;;;;4969753;28;20832;-56
2023/04/29 07:31:10;;;;;;;7.80;2.60;;;16.20;99.90;;;;;;4968857;28;20400;-56
2023/04/29 07:33:36;;;;;;;7.78;2.60;;;16.00;1.00;;;;;;4968917;28;20877;-56
2023/04/29 07:36:02;;;;;;;6.67;2.60;;;15.80;1.00;;;;;;4966433;28;20473;-56
2023/04/29 07:38:28;;;;;;;7.30;2.83;;;15.80;99.90;;;;;;4964828;28;20711;-56
2023/04/29 07:40:54;;;;;;;6.90;2.55;;;15.60;99.90;;;;;;4968797;28;20404;-56
2023/04/29 07:43:20;;;;;;;6.20;2.40;;;15.60;99.90;;;;;;4970057;28;20468;-56
2023/04/29 07:45:46;;;;;;;6.87;2.67;;;15.60;1.00;;;;;;4968974;28;20474;-56
2023/04/29 07:48:12;;;;;;;6.45;2.38;;;15.40;99.90;;;;;;4969914;28;20392;-56
2023/04/29 07:50:37;;;;;;;6.60;2.40;;;15.50;99.90;;;;;;4960283;28;20504;-56
2023/04/29 07:53:04;;;;;;;7.00;2.70;;;15.40;1.00;;;;;;4958971;28;20515;-55
2023/04/29 07:55:30;;;;;;;6.17;2.70;;;14.90;1.00;;;;;;4969734;28;20475;-55
2023/04/29 07:57:56;;;;;;;6.97;2.80;;;14.70;1.00;;;;;;4969612;28;20727;-56
2023/04/29 08:00:22;;;;;;;6.55;2.50;;;14.70;99.90;;;;;;4972732;28;20448;-56
2023/04/29 08:02:52;;;;;;;6.72;2.55;;;14.90;1.00;;;;;;4969087;28;21030;-56
2023/04/29 08:05:20;;;;;;;7.78;2.60;;;14.80;1.00;;;;;;4967275;28;20528;-55
2023/04/29 08:07:46;;;;;;;6.10;2.30;;;14.90;1.00;;;;;;4961439;28;20412;-56
2023/04/29 08:10:12;;;;;;;7.53;2.50;;;14.80;32.00;;;;;;4966636;28;20411;-56
2023/04/29 08:12:37;;;;;;;7.57;2.60;;;14.80;1.00;;;;;;4964273;28;20453;-56
2023/04/29 08:15:04;;;;;;;7.50;2.50;;;14.80;1.00;;;;;;4970078;28;20435;-55
2023/04/29 08:17:29;;;;;;;7.90;2.30;;;14.70;99.90;;;;;;4967493;28;20416;-56
2023/04/29 08:19:55;;;;;;;7.25;2.70;;;14.80;99.90;;;;;;4967391;28;20433;-55
2023/04/29 08:22:21;;;;;;;6.90;2.40;;;15.00;1.00;;;;;;4968500;28;20404;-56
2023/04/29 08:24:47;;;;;;;6.03;2.40;;;15.00;99.90;;;;;;4963791;28;20481;-56
2023/04/29 08:27:14;;;;;;;6.88;2.60;;;15.10;99.90;;;;;;4974635;28;20408;-56
2023/04/29 08:29:42;;;;;;;7.10;2.88;;;15.10;99.90;;;;;;4970964;28;20411;-56
2023/04/29 08:32:08;;;;;;;7.28;2.22;;;15.10;1.00;;;;;;4966888;28;20893;-56
2023/04/29 08:34:35;;;;;;;6.93;2.70;;;15.00;99.90;;;;;;4965105;28;20488;-56
2023/04/29 08:37:01;;;;;;;6.45;2.83;;;15.30;38.50;;;;;;4964922;28;20396;-56
2023/04/29 08:39:30;;;;;;;6.72;2.83;;;15.50;1.00;;;;;;4972686;28;20392;-55
2023/04/29 08:41:57;;;;;;;11.07;2.90;;;15.50;99.90;;;;;;4971900;28;20392;-58
2023/04/29 08:44:28;;;;;;;9.10;3.40;;;15.50;99.90;;;;;;4972130;28;20447;-56
2023/04/29 08:46:56;;;;;;;8.27;3.13;;;15.60;99.90;;;;;;4969713;28;20470;-56
2023/04/29 08:49:22;;;;;;;6.95;2.70;;;16.40;99.90;;;;;;4971992;28;20879;-56
2023/04/29 08:51:50;;;;;;;7.22;3.03;;;16.70;99.90;;;;;;4971367;28;20438;-55
2023/04/29 08:54:16;;;;;;;7.50;3.17;;;16.70;99.90;;;;;;4970685;28;20408;-55
2023/04/29 08:56:44;;;;;;;7.50;3.42;;;16.90;1.00;;;;;;4955247;28;20400;-55
2023/04/29 08:59:13;;;;;;;8.63;3.87;;;16.60;1.00;;;;;;4973472;28;20404;-55
2023/04/29 09:01:41;;;;;;;9.23;3.95;;;16.50;1.00;;;;;;4970377;28;20459;-55
2023/04/29 09:04:13;;;;;;;7.80;3.90;;;16.40;27.60;;;;;;4972481;28;20471;-55
2023/04/29 09:06:39;;;;;;;7.25;3.53;;;16.40;99.90;;;;;;4970877;28;20388;-55
2023/04/29 09:09:05;;;;;;;8.02;3.70;;;16.20;1.00;;;;;;4971717;28;20396;-55
2023/04/29 09:11:32;;;;;;;8.20;3.70;;;16.00;99.90;;;;;;4972178;28;20451;-55
2023/04/29 09:14:01;;;;;;;8.50;3.60;;;15.80;99.90;;;;;;4972268;28;20475;-55
2023/04/29 09:16:28;;;;;;;8.23;3.80;;;16.00;1.00;;;;;;4972276;28;20466;-56
2023/04/29 09:18:55;;;;;;;7.40;3.10;;;16.40;16.70;;;;;;4972153;28;20408;-55
2023/04/29 09:21:23;;;;;;;7.90;3.75;;;16.20;1.00;;;;;;4972554;28;20390;-55
2023/04/29 09:23:51;;;;;;;8.07;3.50;;;16.10;1.00;;;;;;4971893;28;20402;-55
2023/04/29 09:26:17;;;;;;;7.95;3.70;;;16.10;76.70;;;;;;4955187;28;20396;-55
2023/04/29 09:28:43;;;;;;;6.93;2.90;;;16.10;99.90;;;;;;4971688;28;20424;-55
2023/04/29 09:31:10;;;;;;;7.60;3.37;;;16.10;99.90;;;;;;4972897;28;20388;-55
2023/04/29 09:33:53;;;;;;;7.38;3.58;;;16.00;99.90;;;;;;4971659;28;20384;-55
2023/04/29 09:36:39;;;;;;;7.63;3.60;;;16.10;99.90;;;;;;4972389;28;20416;-55
2023/04/29 09:39:10;;;;;;;8.95;3.70;;;15.90;9.90;;;;;;4972600;28;20481;-56
2023/04/29 09:41:58;;;;;;;8.45;3.85;;;16.00;99.90;;;;;;4972012;28;20384;-55
2023/04/29 09:44:28;;;;;;;7.70;3.75;;;16.30;48.30;;;;;;4971739;28;20408;-55
2023/04/29 09:47:06;;;;;;;7.65;3.42;;;16.20;1.00;;;;;;4972066;28;20372;-55
2023/04/29 09:49:44;;;;;;;7.85;3.78;;;16.60;1.00;;;;;;4972198;28;20392;-55
2023/04/29 09:52:15;;;;;;;7.87;3.20;;;16.90;1.00;;;;;;4972112;28;20699;-56
2023/04/29 09:54:42;;;;;;;6.97;3.28;;;17.20;99.90;;;;;;4971280;28;20420;-56
2023/04/29 09:57:10;;;;;;;8.15;3.45;;;17.10;99.90;;;;;;4972486;28;20395;-55
2023/04/29 09:59:38;;;;;;;7.60;3.60;;;17.10;99.90;;;;;;4971687;28;20458;-56
2023/04/29 10:04:56;;;;;;;8.00;3.63;;;17.70;99.90;;;;;;4970940;28;20499;-56
2023/04/29 10:07:22;;;;;;;7.15;2.70;;;17.60;99.90;;;;;;4971873;28;20479;-56
2023/04/29 10:09:48;;;;;;;8.80;3.70;;;18.00;61.40;;;;;;4970557;28;20801;-56
2023/04/29 10:12:19;;;;;;;7.43;2.93;;;18.00;70.20;;;;;;4971877;28;20484;-56
2023/04/29 10:15:01;;;;;;;7.78;3.13;;;18.00;12.40;;;;;;4971343;28;20416;-56
2023/04/29 10:18:05;;;;;;;7.35;2.90;;;18.10;1.00;;;;;;4972601;28;20404;-56
2023/04/29 10:20:32;;;;;;;7.13;2.80;;;18.00;1.00;;;;;;4948088;28;20411;-56
2023/04/29 10:22:58;;;;;;;8.50;2.90;;;17.60;1.00;;;;;;4971196;28;20390;-56
2023/04/29 10:25:26;;;;;;;8.60;3.10;;;17.30;1.00;;;;;;4971164;28;20408;-56
2023/04/29 10:27:54;;;;;;;6.63;2.50;;;17.10;1.00;;;;;;4964769;28;20496;-56
2023/04/29 10:30:21;;;;;;;7.95;3.08;;;17.10;3.40;;;;;;4951999;29;20402;-56
2023/04/29 10:32:48;;;;;;;6.80;3.00;;;16.80;14.30;;;;;;4951752;29;20390;-55
2023/04/29 10:35:18;;;;;;;7.10;2.45;;;17.00;8.30;;;;;;4952423;29;20500;-55
2023/04/29 10:37:46;;;;;;;8.05;3.30;;;16.70;1.00;;;;;;4951719;29;20390;-55
2023/04/29 10:40:21;;;;;;;7.75;3.20;;;16.70;10.80;;;;;;4952343;29;20393;-55
2023/04/29 10:42:51;;;;;;;8.20;3.10;;;17.00;1.00;;;;;;4951680;29;20425;-56
2023/04/29 10:45:33;;;;;;;6.97;2.90;;;17.30;1.00;;;;;;4952056;29;20406;-55
2023/04/29 10:48:05;;;;;;;8.32;3.40;;;18.10;1.00;;;;;;4951392;28;20413;-56
2023/04/29 10:50:46;;;;;;;7.72;3.45;;;18.30;1.00;;;;;;4951898;29;20398;-55
2023/04/29 10:53:16;;;;;;;7.93;2.70;;;18.10;1.00;;;;;;4952203;29;20394;-56
2023/04/29 10:55:42;;;;;;;8.82;3.22;;;17.90;1.00;;;;;;4951331;29;20414;-56
2023/04/29 10:58:32;;;;;;;9.13;3.30;;;17.70;1.00;;;;;;4951759;29;20397;-56
2023/04/29 11:00:58;;;;;;;8.43;3.08;;;17.70;1.00;;;;;;4951809;29;20829;-55
2023/04/29 11:03:53;;;;;;;6.50;2.70;;;17.30;1.00;;;;;;4951644;29;20430;-55
2023/04/29 11:06:21;;;;;;;10.38;3.17;;;17.20;1.00;;;;;;4951481;29;20406;-55
2023/04/29 11:08:58;;;;;;;6.57;2.80;;;17.30;1.00;;;;;;4950553;29;20555;-56
2023/04/29 11:11:24;;;;;;;8.38;2.90;;;17.60;1.00;;;;;;4951786;29;20860;-56
2023/04/29 11:13:50;;;;;;;6.70;2.70;;;18.00;1.00;;;;;;4950885;29;20404;-55
2023/04/29 11:16:26;;;;;;;10.18;3.15;;;18.00;1.00;;;;;;4951422;29;20771;-57
2023/04/29 11:19:07;;;;;;;6.75;2.95;;;18.20;1.00;;;;;;4950889;29;20460;-56
2023/04/29 11:21:36;;;;;;;6.95;2.70;;;18.70;1.00;;;;;;4951548;29;20402;-56
2023/04/29 11:24:05;;;;;;;11.40;3.67;;;19.00;1.00;;;;;;4951315;29;20840;-56
2023/04/29 11:26:35;;;;;;;11.40;4.60;;;19.40;1.00;;;;;;4950888;29;20883;-56
2023/04/29 11:29:04;;;;;;;9.65;4.50;;;19.30;1.00;;;;;;4966294;28;20822;-56
2023/04/29 11:31:31;;;;;;;10.10;4.40;;;19.70;1.00;;;;;;4971069;28;20854;-56
2023/04/29 11:33:59;;;;;;;9.85;4.40;;;19.50;1.00;;;;;;4969783;28;20743;-56
2023/04/29 11:36:26;;;;;;;11.00;4.43;;;18.80;1.00;;;;;;4970376;28;20459;-56
2023/04/29 11:38:52;;;;;;;10.63;4.80;;;18.50;1.00;;;;;;4969644;28;20866;-56
2023/04/29 11:41:18;;;;;;;9.33;4.67;;;18.70;1.00;;;;;;4970781;28;20392;-56
2023/04/29 11:43:46;;;;;;;9.82;4.78;;;18.90;1.00;;;;;;4969843;28;20396;-56
2023/04/29 11:46:13;;;;;;;10.88;4.60;;;19.10;1.00;;;;;;4970545;28;20807;-56
2023/04/29 11:48:48;;;;;;;10.90;5.17;;;19.10;1.00;;;;;;4969890;28;20862;-56
2023/04/29 11:51:16;;;;;;;11.68;4.60;;;18.40;1.00;;;;;;4970417;28;20399;-56
2023/04/29 11:53:41;;;;;;;9.75;4.40;;;18.60;1.00;;;;;;4969843;28;20420;-56
2023/04/29 11:56:09;;;;;;;10.30;4.87;;;18.50;1.00;;;;;;4970692;28;20451;-55
2023/04/29 11:58:35;;;;;;;9.18;4.40;;;18.40;1.00;;;;;;4970344;28;20400;-56
2023/04/29 12:01:03;;;;;;;10.48;4.53;;;18.50;1.00;;;;;;4974086;28;20388;-56
2023/04/29 12:03:30;;;;;;;13.10;4.50;;;18.40;1.00;;;;;;4974165;28;20400;-56
2023/04/29 12:05:56;;;;;;;12.18;5.03;;;18.20;1.00;;;;;;4973522;28;20478;-56
2023/04/29 12:08:23;;;;;;;10.25;5.10;;;18.40;1.00;;;;;;4973886;28;20483;-56
2023/04/29 12:10:50;;;;;;;9.70;4.22;;;18.60;1.00;;;;;;4972261;28;20391;-56
2023/04/29 12:13:17;;;;;;;11.43;4.30;;;18.80;1.00;;;;;;4974036;28;20402;-56
2023/04/29 12:15:47;;;;;;;11.25;5.00;;;18.80;1.00;;;;;;4973151;28;20426;-56
2023/04/29 12:18:13;;;;;;;10.35;4.80;;;19.20;1.00;;;;;;4973928;28;20383;-56
2023/04/29 12:20:40;;;;;;;10.70;4.80;;;19.20;1.00;;;;;;4973169;28;20487;-56
2023/04/29 12:23:17;;;;;;;9.55;4.55;;;19.30;1.00;;;;;;4973617;28;20396;-56
2023/04/29 12:25:49;;;;;;;10.10;4.80;;;19.20;1.00;;;;;;4972586;28;20408;-56
2023/04/29 12:28:15;;;;;;;9.60;4.60;;;18.70;1.00;;;;;;4973372;28;20473;-56
2023/04/29 12:30:43;;;;;;;11.87;4.77;;;18.70;1.00;;;;;;4972734;28;20798;-56
2023/04/29 12:33:09;;;;;;;11.70;5.10;;;18.40;1.00;;;;;;4973583;28;20719;-56
2023/04/29 12:35:38;;;;;;;11.10;4.93;;;18.60;1.00;;;;;;4973200;28;20409;-56
2023/04/29 12:38:03;;;;;;;10.15;4.70;;;18.40;1.00;;;;;;4974057;28;20392;-56
2023/04/29 12:40:31;;;;;;;11.40;5.37;;;18.60;1.00;;;;;;4973367;28;20396;-56
2023/04/29 12:42:56;;;;;;;8.40;4.30;;;18.30;1.00;;;;;;4972702;28;20446;-56
2023/04/29 12:45:30;;;;;;;10.52;4.50;;;18.20;1.00;;;;;;4973438;28;20400;-57
2023/04/29 12:47:56;;;;;;;10.45;4.95;;;18.20;1.00;;;;;;4972808;28;20407;-56
2023/04/29 12:50:36;;;;;;;15.82;4.75;;;18.10;1.00;;;;;;4973475;28;20380;-56
2023/04/29 12:53:05;;;;;;;13.40;5.30;;;18.20;1.00;;;;;;4973480;28;20467;-56
2023/04/29 12:55:33;;;;;;;10.10;4.60;;;18.40;1.00;;;;;;4973350;28;20499;-56
2023/04/29 12:57:59;;;;;;;10.30;5.30;;;18.60;1.00;;;;;;4973319;28;20404;-56